Time;durP1;ratioP1;P1;durP2;ratioP2;P2;SDS_P1;SDS_P2;PMS_P1;PMS_P2;Temp;Humidity;BMP_temperature;BMP_pressure;BME280_temperature;BME280_humidity;BME280_pressure;Samples;Min_cycle;Max_cycle;Signal;HPM_P1;HPM_P2
2021/10/01 00:00:17;;;;;;;2.65;1.20;;;20.50;61.70;;;;;;3120670;28;20053;-83
2021/10/01 00:01:48;;;;;;;2.03;0.98;;;20.50;61.80;;;;;;3117139;23;20406;-87
2021/10/01 00:03:20;;;;;;;2.83;1.30;;;20.50;61.90;;;;;;3094033;28;20051;-87
2021/10/01 00:04:51;;;;;;;5.30;1.50;;;20.50;61.80;;;;;;3102792;28;20069;-87
2021/10/01 00:06:24;;;;;;;3.42;1.52;;;20.50;61.70;;;;;;3105658;28;20462;-87
2021/10/01 00:07:55;;;;;;;4.45;1.30;;;20.50;61.80;;;;;;3099569;28;20483;-86
2021/10/01 00:09:27;;;;;;;4.15;1.38;;;20.50;61.80;;;;;;3104945;28;20058;-87
2021/10/01 00:10:59;;;;;;;2.13;1.27;;;20.50;61.80;;;;;;3117774;28;20049;-87
2021/10/01 00:12:31;;;;;;;3.83;1.33;;;20.50;61.90;;;;;;3123810;28;20136;-87
2021/10/01 00:14:02;;;;;;;3.92;1.10;;;20.50;61.80;;;;;;3123546;28;20068;-87
2021/10/01 00:15:35;;;;;;;2.75;1.30;;;20.50;61.70;;;;;;3123012;28;20042;-87
2021/10/01 00:17:09;;;;;;;4.20;1.45;;;20.50;61.70;;;;;;3123939;28;20075;-87
2021/10/01 00:18:41;;;;;;;2.92;1.35;;;20.50;61.60;;;;;;3123705;28;20051;-86
2021/10/01 00:20:12;;;;;;;2.85;1.38;;;20.50;61.80;;;;;;3123190;28;20045;-87
2021/10/01 00:21:44;;;;;;;2.20;1.23;;;20.40;61.70;;;;;;3123838;28;20049;-87
2021/10/01 00:23:16;;;;;;;3.03;1.33;;;20.50;61.80;;;;;;3123565;28;20453;-87
2021/10/01 00:24:48;;;;;;;2.50;1.10;;;20.40;61.80;;;;;;3122031;28;20095;-86
2021/10/01 00:26:19;;;;;;;2.90;1.10;;;20.40;61.90;;;;;;3123009;28;20053;-87
2021/10/01 00:27:51;;;;;;;2.53;1.10;;;20.50;61.70;;;;;;3123476;28;20045;-87
2021/10/01 00:29:23;;;;;;;4.30;1.30;;;20.40;61.60;;;;;;3123352;28;20049;-87
2021/10/01 00:30:56;;;;;;;6.72;1.40;;;20.50;61.90;;;;;;3122692;28;20045;-87
2021/10/01 00:32:28;;;;;;;3.85;1.17;;;20.40;61.80;;;;;;3123719;28;20521;-86
2021/10/01 00:34:01;;;;;;;2.80;1.10;;;20.40;61.80;;;;;;3104211;28;20045;-87
2021/10/01 00:35:32;;;;;;;3.05;1.50;;;20.40;61.80;;;;;;3111503;28;20096;-87
2021/10/01 00:37:04;;;;;;;2.97;1.35;;;20.40;61.90;;;;;;3111615;28;20104;-87
2021/10/01 00:38:36;;;;;;;2.63;1.23;;;20.40;61.80;;;;;;3111407;28;20546;-87
2021/10/01 00:40:09;;;;;;;2.97;1.20;;;20.40;61.80;;;;;;3111117;28;20050;-87
2021/10/01 00:41:41;;;;;;;2.60;1.33;;;20.40;61.70;;;;;;3111742;28;20053;-87
2021/10/01 00:43:12;;;;;;;1.35;1.05;;;20.40;61.70;;;;;;3111703;28;20053;-87
2021/10/01 00:44:44;;;;;;;2.08;1.00;;;20.40;61.80;;;;;;3111070;28;20054;-87
2021/10/01 00:46:17;;;;;;;3.25;1.60;;;20.40;62.00;;;;;;3110732;28;20474;-87
2021/10/01 00:47:49;;;;;;;2.70;1.08;;;20.40;62.20;;;;;;3111319;28;20410;-87
2021/10/01 00:49:21;;;;;;;5.22;1.40;;;20.30;62.10;;;;;;3110567;28;20061;-87
2021/10/01 00:50:52;;;;;;;3.17;1.50;;;20.40;62.00;;;;;;3111343;28;20491;-87
2021/10/01 00:52:24;;;;;;;1.98;1.15;;;20.40;62.00;;;;;;3110965;28;20050;-87
2021/10/01 00:53:56;;;;;;;2.13;1.33;;;20.40;61.90;;;;;;3110591;28;20054;-87
2021/10/01 00:55:28;;;;;;;3.60;1.33;;;20.30;62.10;;;;;;3111557;28;20054;-87
2021/10/01 00:56:59;;;;;;;2.83;1.23;;;20.40;61.90;;;;;;3111562;28;20050;-87
2021/10/01 00:58:31;;;;;;;2.20;1.13;;;20.30;61.90;;;;;;3111119;28;20493;-86
2021/10/01 01:00:03;;;;;;;3.05;1.20;;;20.30;62.00;;;;;;3110302;28;20085;-87
2021/10/01 01:01:36;;;;;;;5.33;1.40;;;20.30;61.90;;;;;;3109769;28;20057;-87
2021/10/01 01:03:08;;;;;;;1.73;1.15;;;20.30;61.70;;;;;;3110975;28;20096;-88
2021/10/01 01:04:41;;;;;;;3.05;1.20;;;20.40;61.90;;;;;;3109565;28;20046;-87
2021/10/01 01:06:14;;;;;;;;;;;20.30;62.00;;;;;;3111190;28;20046;-86
2021/10/01 01:07:50;;;;;;;3.28;1.00;;;20.30;61.80;;;;;;3111159;28;19925;-87
2021/10/01 01:09:27;;;;;;;3.17;1.25;;;20.40;61.80;;;;;;3110462;28;20470;-87
2021/10/01 01:11:02;;;;;;;2.25;1.30;;;20.30;62.00;;;;;;3110610;28;20145;-87
2021/10/01 01:12:40;;;;;;;3.78;1.30;;;20.30;61.90;;;;;;3111423;28;20487;-87
2021/10/01 01:14:14;;;;;;;3.30;1.30;;;20.30;62.00;;;;;;3110477;28;20212;-87
2021/10/01 01:15:49;;;;;;;1.65;1.10;;;20.30;62.00;;;;;;3110082;28;20630;-87
2021/10/01 01:17:24;;;;;;;2.80;1.17;;;20.30;62.00;;;;;;3110848;28;20491;-87
2021/10/01 01:18:55;;;;;;;3.22;1.10;;;20.30;62.10;;;;;;3110327;28;20108;-87
2021/10/01 01:20:29;;;;;;;4.65;1.27;;;20.30;62.10;;;;;;3110613;28;20053;-87
2021/10/01 01:22:06;;;;;;;1.77;1.08;;;20.30;62.30;;;;;;3110967;28;20108;-87
2021/10/01 01:23:55;;;;;;;2.45;1.20;;;20.20;62.20;;;;;;3110203;28;20081;-88
2021/10/01 01:25:54;;;;;;;2.15;1.20;;;20.20;62.20;;;;;;3110099;28;20104;-87
2021/10/01 01:27:34;;;;;;;2.28;1.20;;;20.20;62.20;;;;;;3111187;28;20053;-87
2021/10/01 01:29:10;;;;;;;2.13;1.08;;;20.20;62.20;;;;;;3111324;28;20057;-87
2021/10/01 01:30:43;;;;;;;3.47;1.20;;;20.20;62.30;;;;;;3111284;28;20042;-87
2021/10/01 01:32:17;;;;;;;1.65;1.13;;;20.20;62.20;;;;;;3110804;28;20046;-87
2021/10/01 01:33:49;;;;;;;2.65;1.20;;;20.20;62.50;;;;;;3104187;28;20053;-87
2021/10/01 01:35:23;;;;;;;2.97;1.13;;;20.20;62.30;;;;;;3113830;28;20057;-87
2021/10/01 01:36:58;;;;;;;2.67;0.90;;;20.20;62.50;;;;;;3101556;28;20134;-87
2021/10/01 01:38:31;;;;;;;2.72;1.15;;;20.20;62.40;;;;;;3103156;28;20081;-87
2021/10/01 01:40:05;;;;;;;3.92;1.10;;;20.20;62.40;;;;;;3099731;28;20069;-87
2021/10/01 01:41:37;;;;;;;2.30;1.10;;;20.20;62.50;;;;;;3100790;28;20050;-87
2021/10/01 01:43:09;;;;;;;3.55;1.20;;;20.10;62.50;;;;;;3100624;28;20400;-87
2021/10/01 01:44:41;;;;;;;1.90;1.02;;;20.20;62.60;;;;;;3099127;28;20051;-86
2021/10/01 01:46:13;;;;;;;2.80;1.00;;;20.20;62.30;;;;;;3098455;28;20039;-87
2021/10/01 01:47:46;;;;;;;2.65;1.17;;;20.20;62.20;;;;;;3099125;28;20105;-87
2021/10/01 01:49:18;;;;;;;3.10;1.30;;;20.20;62.20;;;;;;3098962;28;20050;-87
2021/10/01 01:50:52;;;;;;;2.60;1.15;;;20.20;62.30;;;;;;3099472;28;20056;-87
2021/10/01 01:52:24;;;;;;;1.77;1.00;;;20.20;62.30;;;;;;3103337;28;20050;-86
2021/10/01 01:53:56;;;;;;;1.75;1.00;;;20.20;62.50;;;;;;3100854;28;20054;-86
2021/10/01 01:55:28;;;;;;;1.52;1.10;;;20.20;62.30;;;;;;3101002;28;20906;-86
2021/10/01 01:56:59;;;;;;;1.83;1.10;;;20.20;62.50;;;;;;3111341;28;20045;-86
2021/10/01 01:58:31;;;;;;;1.67;0.98;;;20.10;62.60;;;;;;3112494;28;20108;-85
2021/10/01 02:00:04;;;;;;;2.05;1.05;;;20.10;62.70;;;;;;3112028;28;20149;-86
2021/10/01 02:01:40;;;;;;;2.92;1.13;;;20.10;62.60;;;;;;3115120;28;20073;-84
2021/10/01 02:03:12;;;;;;;1.70;1.10;;;20.10;62.50;;;;;;3111307;28;20054;-87
2021/10/01 02:04:44;;;;;;;1.98;0.95;;;20.10;62.50;;;;;;3111199;28;20715;-87
2021/10/01 02:06:16;;;;;;;2.80;1.10;;;20.10;62.50;;;;;;3114077;28;20050;-87
2021/10/01 02:07:48;;;;;;;1.88;1.00;;;20.10;62.50;;;;;;3113807;28;20392;-87
2021/10/01 02:09:20;;;;;;;1.80;1.02;;;20.10;62.50;;;;;;3113490;28;20099;-87
2021/10/01 02:10:52;;;;;;;1.65;1.00;;;20.10;62.20;;;;;;3114170;28;20111;-87
2021/10/01 02:12:24;;;;;;;4.10;1.17;;;20.10;62.40;;;;;;3113584;28;20111;-87
2021/10/01 02:14:04;;;;;;;1.38;0.85;;;20.10;62.30;;;;;;3109769;28;20073;-86
2021/10/01 02:15:35;;;;;;;1.90;0.90;;;20.10;62.50;;;;;;3111210;28;20129;-87
2021/10/01 02:17:07;;;;;;;2.17;0.90;;;20.10;62.50;;;;;;3102507;28;20047;-87
2021/10/01 02:18:41;;;;;;;1.90;1.02;;;20.10;62.60;;;;;;3100025;28;20050;-87
2021/10/01 02:20:13;;;;;;;1.92;1.10;;;20.10;62.60;;;;;;3112276;28;20081;-87
2021/10/01 02:21:44;;;;;;;1.92;0.93;;;20.10;62.70;;;;;;3115893;28;20046;-87
2021/10/01 02:23:15;;;;;;;1.77;1.10;;;20.10;62.80;;;;;;3113208;28;20137;-88
2021/10/01 02:24:47;;;;;;;3.10;1.33;;;20.00;62.50;;;;;;3111817;28;20056;-87
2021/10/01 02:26:33;;;;;;;2.65;0.93;;;20.10;62.60;;;;;;3111887;28;20108;-87
2021/10/01 02:28:08;;;;;;;1.85;1.00;;;20.10;62.50;;;;;;3114321;28;20095;-87
2021/10/01 02:29:46;;;;;;;1.92;1.10;;;20.10;62.40;;;;;;3103033;28;20056;-87
2021/10/01 02:31:20;;;;;;;1.45;1.00;;;20.00;62.40;;;;;;3099682;28;20110;-87
2021/10/01 02:32:54;;;;;;;3.05;1.17;;;20.00;63.50;;;;;;3105782;28;20042;-87
2021/10/01 02:34:31;;;;;;;3.03;1.20;;;20.00;62.70;;;;;;3114474;28;20066;-87
2021/10/01 02:36:10;;;;;;;2.40;1.10;;;20.00;62.80;;;;;;3106134;28;20058;-87
2021/10/01 02:37:42;;;;;;;3.50;1.13;;;20.00;62.70;;;;;;3099479;28;20060;-87
2021/10/01 02:39:13;;;;;;;1.25;0.90;;;20.00;62.50;;;;;;3099582;28;20097;-87
2021/10/01 02:40:45;;;;;;;2.10;1.10;;;20.00;62.50;;;;;;3106902;28;20078;-87
2021/10/01 02:42:17;;;;;;;1.45;0.95;;;20.00;62.70;;;;;;3099993;28;20061;-87
2021/10/01 02:43:49;;;;;;;1.57;0.97;;;20.00;62.90;;;;;;3100477;28;20101;-87
2021/10/01 02:45:21;;;;;;;1.17;0.90;;;20.00;62.90;;;;;;3099033;28;20554;-87
2021/10/01 02:46:52;;;;;;;2.20;1.10;;;20.00;62.70;;;;;;3101544;28;20054;-87
2021/10/01 02:48:24;;;;;;;2.53;1.05;;;20.00;62.70;;;;;;3101296;28;20046;-87
2021/10/01 02:49:57;;;;;;;2.17;1.13;;;20.00;62.60;;;;;;3098536;28;20061;-87
2021/10/01 02:51:29;;;;;;;2.03;0.95;;;20.00;62.80;;;;;;3093584;28;20089;-87
2021/10/01 02:53:04;;;;;;;1.53;0.90;;;20.00;62.90;;;;;;3087207;28;20086;-87
2021/10/01 02:54:39;;;;;;;1.80;0.93;;;20.00;62.60;;;;;;3086492;28;20353;-87
2021/10/01 02:56:13;;;;;;;2.88;1.10;;;19.90;62.80;;;;;;3090306;28;20058;-87
2021/10/01 02:57:47;;;;;;;2.90;1.10;;;19.90;62.80;;;;;;3098277;28;20053;-88
2021/10/01 02:59:19;;;;;;;3.10;1.17;;;19.90;62.60;;;;;;3097520;28;20054;-87
2021/10/01 03:00:51;;;;;;;1.60;1.00;;;19.90;62.70;;;;;;3096689;28;20042;-87
2021/10/01 03:02:23;;;;;;;2.25;1.05;;;19.90;62.70;;;;;;3097589;28;20420;-87
2021/10/01 03:03:56;;;;;;;2.22;1.00;;;19.90;62.70;;;;;;3104439;28;20141;-87
2021/10/01 03:05:29;;;;;;;1.67;0.90;;;19.90;62.60;;;;;;3097837;28;20077;-87
2021/10/01 03:07:01;;;;;;;2.08;1.05;;;19.90;62.60;;;;;;3097931;28;20054;-87
2021/10/01 03:08:33;;;;;;;2.58;1.10;;;19.90;62.70;;;;;;3097858;28;20057;-87
2021/10/01 03:10:06;;;;;;;1.42;0.90;;;19.90;62.80;;;;;;3095974;28;20050;-87
2021/10/01 03:11:38;;;;;;;2.17;0.95;;;19.90;62.60;;;;;;3097387;28;20108;-87
2021/10/01 03:13:09;;;;;;;1.65;1.00;;;19.90;62.60;;;;;;3097149;28;20102;-87
2021/10/01 03:14:41;;;;;;;1.52;0.82;;;19.90;62.60;;;;;;3096932;28;20038;-87
2021/10/01 03:16:13;;;;;;;2.08;1.10;;;19.90;62.50;;;;;;3096670;28;20049;-87
2021/10/01 03:17:44;;;;;;;1.45;1.02;;;19.90;62.80;;;;;;3097802;28;20066;-87
2021/10/01 03:19:17;;;;;;;1.98;1.02;;;19.90;62.90;;;;;;3097357;28;20384;-87
2021/10/01 03:20:50;;;;;;;1.50;1.00;;;19.90;62.70;;;;;;3097330;28;20062;-87
2021/10/01 03:22:22;;;;;;;1.70;1.00;;;19.90;62.70;;;;;;3097302;28;20043;-87
2021/10/01 03:23:55;;;;;;;2.50;1.08;;;19.90;62.70;;;;;;3096970;28;20054;-87
2021/10/01 03:25:26;;;;;;;1.70;1.17;;;19.90;62.70;;;;;;3097289;28;20051;-87
2021/10/01 03:26:58;;;;;;;2.45;1.20;;;19.90;62.80;;;;;;3097702;28;20062;-87
2021/10/01 03:28:30;;;;;;;1.50;0.88;;;19.90;62.50;;;;;;3098470;28;20112;-87
2021/10/01 03:30:04;;;;;;;2.20;1.00;;;19.90;62.70;;;;;;3098639;28;20042;-87
2021/10/01 03:31:36;;;;;;;1.73;0.90;;;19.90;62.80;;;;;;3099315;28;20511;-87
2021/10/01 03:33:08;;;;;;;1.48;0.90;;;19.90;62.50;;;;;;3100057;28;20112;-87
2021/10/01 03:34:40;;;;;;;1.73;0.93;;;19.90;62.50;;;;;;3107706;28;20097;-87
2021/10/01 03:36:14;;;;;;;1.30;1.02;;;19.90;62.60;;;;;;3112148;28;20100;-87
2021/10/01 03:37:46;;;;;;;0.98;0.82;;;19.90;62.50;;;;;;3112119;28;20054;-87
2021/10/01 03:39:21;;;;;;;1.58;0.82;;;19.90;62.60;;;;;;3111534;28;20054;-87
2021/10/01 03:40:53;;;;;;;3.42;1.30;;;19.90;62.60;;;;;;3111744;28;20466;-87
2021/10/01 03:42:25;;;;;;;1.42;0.90;;;19.90;62.70;;;;;;3112050;28;20058;-87
2021/10/01 03:43:57;;;;;;;1.40;0.90;;;19.90;62.50;;;;;;3111689;28;20073;-87
2021/10/01 03:45:28;;;;;;;1.92;0.82;;;19.90;62.60;;;;;;3111199;28;20049;-87
2021/10/01 03:46:59;;;;;;;1.30;0.90;;;19.90;62.70;;;;;;3112063;28;20053;-87
2021/10/01 03:48:31;;;;;;;3.05;0.90;;;19.90;62.60;;;;;;3111965;28;20041;-87
2021/10/01 03:50:03;;;;;;;1.73;0.73;;;19.90;62.60;;;;;;3110977;28;20494;-87
2021/10/01 03:51:36;;;;;;;1.52;0.82;;;19.90;62.50;;;;;;3111844;28;20053;-87
2021/10/01 03:53:08;;;;;;;3.58;1.00;;;19.80;62.70;;;;;;3111908;28;20085;-87
2021/10/01 03:54:40;;;;;;;0.95;0.80;;;19.80;62.60;;;;;;3111317;28;20137;-87
2021/10/01 03:56:16;;;;;;;2.47;0.90;;;19.80;62.60;;;;;;3111982;28;20050;-87
2021/10/01 03:57:48;;;;;;;1.75;0.98;;;19.90;62.80;;;;;;3112027;28;20057;-87
2021/10/01 03:59:20;;;;;;;2.60;1.02;;;19.80;62.70;;;;;;3111397;28;20053;-87
2021/10/01 04:00:51;;;;;;;2.70;1.08;;;19.80;62.70;;;;;;3110693;28;20403;-87
2021/10/01 04:02:23;;;;;;;1.63;0.85;;;19.80;62.70;;;;;;3111779;28;20553;-87
2021/10/01 04:03:55;;;;;;;1.65;0.90;;;19.80;62.70;;;;;;3111426;28;20042;-87
2021/10/01 04:05:26;;;;;;;1.98;0.95;;;19.80;63.30;;;;;;3111722;28;20400;-87
2021/10/01 04:07:00;;;;;;;1.40;0.80;;;19.80;62.70;;;;;;3112015;28;20602;-87
2021/10/01 04:08:32;;;;;;;1.48;0.90;;;19.80;62.70;;;;;;3112203;28;20521;-87
2021/10/01 04:10:04;;;;;;;1.88;0.95;;;19.80;62.50;;;;;;3111141;28;20410;-87
2021/10/01 04:11:38;;;;;;;1.30;0.90;;;19.80;62.80;;;;;;3111587;28;20046;-87
2021/10/01 04:13:10;;;;;;;1.27;0.90;;;19.80;62.90;;;;;;3111866;28;20440;-88
2021/10/01 04:14:41;;;;;;;2.50;1.05;;;19.80;62.90;;;;;;3111167;28;20396;-87
2021/10/01 04:16:13;;;;;;;2.03;0.80;;;19.80;62.70;;;;;;3110653;28;20050;-87
2021/10/01 04:17:44;;;;;;;2.08;0.90;;;19.80;62.70;;;;;;3111772;28;20566;-87
2021/10/01 04:19:15;;;;;;;1.92;0.88;;;19.80;62.80;;;;;;3111055;28;20038;-87
2021/10/01 04:20:47;;;;;;;2.72;1.00;;;19.80;62.70;;;;;;3111324;28;20116;-87
2021/10/01 04:22:20;;;;;;;2.15;0.90;;;19.80;62.70;;;;;;3111595;28;20081;-87
2021/10/01 04:23:52;;;;;;;1.13;0.77;;;19.70;62.90;;;;;;3110499;28;20050;-87
2021/10/01 04:25:24;;;;;;;2.38;0.82;;;19.70;62.80;;;;;;3111866;28;20395;-87
2021/10/01 04:26:55;;;;;;;2.42;0.90;;;19.80;62.70;;;;;;3111808;28;20046;-87
2021/10/01 04:28:27;;;;;;;1.98;1.02;;;19.80;62.70;;;;;;3111483;28;20506;-88
2021/10/01 04:30:00;;;;;;;1.45;0.80;;;19.70;62.90;;;;;;3109858;28;20065;-87
2021/10/01 04:31:32;;;;;;;;;;;19.70;63.10;;;;;;3111129;28;20503;-87
2021/10/01 04:33:13;;;;;;;1.27;0.80;;;19.70;63.10;;;;;;3106904;28;20370;-88
2021/10/01 04:35:00;;;;;;;3.13;0.98;;;19.80;63.10;;;;;;3109496;28;20038;-87
2021/10/01 04:36:33;;;;;;;4.22;0.90;;;19.80;63.90;;;;;;3111335;28;20050;-87
2021/10/01 04:38:06;;;;;;;1.63;0.82;;;19.90;64.10;;;;;;3111421;28;20172;-88
2021/10/01 04:39:37;;;;;;;1.90;0.75;;;20.00;63.90;;;;;;3109552;28;20514;-87
2021/10/01 04:41:09;;;;;;;2.38;0.80;;;20.20;63.20;;;;;;3111268;28;20060;-88
2021/10/01 04:42:40;;;;;;;1.45;0.77;;;20.30;63.00;;;;;;3101043;28;20042;-88
2021/10/01 04:44:13;;;;;;;2.83;0.80;;;20.40;62.80;;;;;;3098698;28;20145;-88
2021/10/01 04:45:45;;;;;;;;;;;20.40;62.60;;;;;;3098546;28;20049;-88
2021/10/01 04:47:16;;;;;;;7.43;0.82;;;20.60;62.10;;;;;;3098936;28;19926;-88
2021/10/01 04:48:49;;;;;;;1.60;0.80;;;20.60;62.30;;;;;;3109755;28;20833;-88
2021/10/01 04:50:21;;;;;;;5.10;0.70;;;20.70;62.20;;;;;;3110795;28;20140;-87
2021/10/01 04:51:52;;;;;;;5.90;0.98;;;20.80;61.90;;;;;;3111278;28;20046;-88
2021/10/01 04:53:25;;;;;;;3.53;0.88;;;20.80;61.80;;;;;;3111119;28;20054;-88
2021/10/01 04:54:57;;;;;;;1.95;0.90;;;20.70;61.20;;;;;;3110804;28;20041;-88
2021/10/01 04:56:29;;;;;;;4.95;0.88;;;20.80;60.80;;;;;;3111640;28;20775;-88
2021/10/01 04:58:00;;;;;;;2.13;0.93;;;20.90;60.80;;;;;;3111264;28;20049;-87
2021/10/01 04:59:32;;;;;;;3.03;0.70;;;20.90;60.70;;;;;;3110316;28;20046;-87
2021/10/01 05:01:04;;;;;;;2.47;0.73;;;21.00;60.50;;;;;;3110073;28;20043;-88
2021/10/01 05:02:36;;;;;;;4.07;1.03;;;21.10;60.30;;;;;;3111844;28;20120;-87
2021/10/01 05:04:08;;;;;;;3.70;0.88;;;21.10;60.10;;;;;;3116574;28;20053;-88
2021/10/01 05:05:39;;;;;;;5.00;0.90;;;21.10;59.90;;;;;;3111110;28;20096;-87
2021/10/01 05:07:13;;;;;;;2.00;0.73;;;21.10;59.90;;;;;;3110806;28;20049;-88
2021/10/01 05:08:46;;;;;;;8.60;1.20;;;21.10;59.90;;;;;;3110388;28;20137;-88
2021/10/01 05:10:18;;;;;;;4.25;0.80;;;21.10;61.80;;;;;;3110789;28;20054;-89
2021/10/01 05:11:50;;;;;;;6.05;0.90;;;21.10;61.20;;;;;;3111127;28;20054;-88
2021/10/01 05:13:22;;;;;;;6.40;1.20;;;21.10;61.10;;;;;;3110941;28;20602;-88
2021/10/01 05:14:52;;;;;;;4.60;0.98;;;21.00;61.50;;;;;;3099785;28;20057;-88
2021/10/01 05:16:24;;;;;;;3.10;0.90;;;20.90;61.60;;;;;;3097689;28;20055;-87
2021/10/01 05:17:58;;;;;;;3.58;0.85;;;20.90;61.80;;;;;;3098877;28;20480;-88
2021/10/01 05:19:29;;;;;;;4.38;0.82;;;20.90;61.80;;;;;;3105282;28;20074;-88
2021/10/01 05:21:03;;;;;;;3.72;1.08;;;21.00;61.80;;;;;;3110552;28;20561;-88
2021/10/01 05:22:35;;;;;;;6.78;1.02;;;20.90;61.70;;;;;;3110861;28;20514;-88
2021/10/01 05:24:08;;;;;;;6.65;1.23;;;20.90;61.90;;;;;;3110383;28;20050;-88
2021/10/01 05:25:40;;;;;;;5.63;0.80;;;20.90;62.00;;;;;;3110996;28;20423;-87
2021/10/01 05:27:12;;;;;;;10.10;1.80;;;20.90;62.00;;;;;;3110901;28;20042;-88
2021/10/01 05:28:43;;;;;;;4.30;1.10;;;20.90;62.00;;;;;;3109507;28;20507;-87
2021/10/01 05:30:16;;;;;;;10.98;1.15;;;20.90;61.90;;;;;;3098253;28;20389;-88
2021/10/01 05:31:51;;;;;;;6.13;1.00;;;21.00;61.80;;;;;;3112217;28;20068;-88
2021/10/01 05:33:24;;;;;;;3.95;1.17;;;21.10;61.60;;;;;;3103942;28;20060;-88
2021/10/01 05:34:57;;;;;;;5.03;1.17;;;21.10;61.70;;;;;;3091796;28;20101;-88
2021/10/01 05:36:30;;;;;;;12.02;1.15;;;21.10;61.60;;;;;;3099802;28;20054;-88
2021/10/01 05:38:03;;;;;;;4.25;0.98;;;21.10;61.60;;;;;;3099250;28;20050;-88
2021/10/01 05:39:36;;;;;;;3.05;1.30;;;21.10;61.80;;;;;;3098673;28;20077;-87
2021/10/01 05:41:08;;;;;;;2.97;0.85;;;21.00;61.70;;;;;;3097924;28;20049;-88
2021/10/01 05:42:43;;;;;;;7.30;1.33;;;21.00;61.40;;;;;;3098884;28;20054;-87
2021/10/01 05:44:18;;;;;;;5.15;1.27;;;21.10;61.30;;;;;;3096792;28;20070;-86
2021/10/01 05:45:51;;;;;;;5.68;1.20;;;21.10;61.60;;;;;;3094893;28;20046;-87
2021/10/01 05:47:23;;;;;;;2.60;0.90;;;21.10;61.60;;;;;;3098731;28;20058;-86
2021/10/01 05:48:58;;;;;;;4.57;1.17;;;21.00;61.60;;;;;;3097623;28;20056;-87
2021/10/01 05:50:31;;;;;;;8.50;1.20;;;21.10;61.30;;;;;;3098090;28;20980;-86
2021/10/01 05:52:14;;;;;;;7.72;1.60;;;21.10;61.60;;;;;;3100049;28;20518;-85
2021/10/01 05:54:00;;;;;;;;;;;21.10;61.80;;;;;;3110743;28;20077;-86
2021/10/01 05:55:33;;;;;;;8.38;1.52;;;21.00;62.10;;;;;;3111197;28;19926;-86
2021/10/01 05:57:07;;;;;;;7.95;1.50;;;21.10;62.40;;;;;;3110758;28;20129;-86
2021/10/01 05:58:39;;;;;;;4.10;1.15;;;21.00;62.30;;;;;;3109457;28;20495;-86
2021/10/01 06:00:11;;;;;;;7.75;1.67;;;21.10;63.30;;;;;;3097285;28;20046;-86
2021/10/01 06:01:43;;;;;;;27.30;1.98;;;21.00;63.10;;;;;;3098917;28;20100;-86
2021/10/01 06:04:55;;;;;;;7.15;1.40;;;21.00;63.00;;;;;;3089397;28;20053;-83
2021/10/01 06:06:28;;;;;;;6.53;1.40;;;21.10;63.10;;;;;;3092014;28;20050;-83
2021/10/01 06:07:59;;;;;;;10.32;2.20;;;21.10;63.30;;;;;;3096284;28;20050;-83
2021/10/01 06:09:31;;;;;;;7.75;1.60;;;21.10;63.30;;;;;;3096293;28;20047;-84
2021/10/01 06:11:04;;;;;;;6.68;1.65;;;21.00;63.00;;;;;;3097073;28;20046;-84
2021/10/01 06:12:36;;;;;;;7.57;1.60;;;21.00;63.10;;;;;;3101831;28;20042;-84
2021/10/01 06:14:08;;;;;;;7.07;1.63;;;21.00;63.40;;;;;;3109065;28;20053;-85
2021/10/01 06:15:40;;;;;;;7.90;1.48;;;20.90;63.60;;;;;;3107774;28;20092;-84
2021/10/01 06:17:15;;;;;;;9.07;1.60;;;20.90;63.70;;;;;;3109868;28;20422;-84
2021/10/01 06:18:46;;;;;;;13.15;1.80;;;20.90;63.80;;;;;;3107020;28;20065;-83
2021/10/01 06:20:18;;;;;;;13.38;1.75;;;20.90;64.50;;;;;;3099072;28;20403;-82
2021/10/01 06:21:51;;;;;;;8.90;1.60;;;20.80;64.50;;;;;;3096720;28;20050;-83
2021/10/01 06:23:26;;;;;;;8.50;1.88;;;20.80;64.40;;;;;;3096688;28;20125;-84
2021/10/01 06:24:58;;;;;;;11.18;1.63;;;20.80;64.10;;;;;;3095957;28;20050;-83
2021/10/01 06:26:31;;;;;;;10.88;1.92;;;20.80;64.50;;;;;;3097212;28;20042;-84
2021/10/01 06:28:03;;;;;;;9.55;1.92;;;20.80;64.00;;;;;;3096963;28;20058;-86
2021/10/01 06:29:35;;;;;;;7.63;1.93;;;20.60;64.40;;;;;;3096111;28;20054;-85
2021/10/01 06:31:06;;;;;;;9.65;2.08;;;20.60;64.60;;;;;;3095828;28;20293;-85
2021/10/01 06:32:38;;;;;;;6.88;1.88;;;20.60;65.20;;;;;;3096054;28;20050;-84
2021/10/01 06:34:10;;;;;;;10.38;1.70;;;20.60;64.40;;;;;;3090855;28;20495;-84
2021/10/01 06:35:43;;;;;;;8.00;2.20;;;20.50;64.60;;;;;;3097074;28;20700;-84
2021/10/01 06:37:16;;;;;;;13.82;2.10;;;20.50;64.50;;;;;;3096700;28;20050;-85
2021/10/01 06:38:48;;;;;;;;;;;20.50;64.40;;;;;;3097197;28;20558;-83
2021/10/01 06:40:20;;;;;;;14.73;2.17;;;20.40;64.50;;;;;;3091615;28;20323;-85
2021/10/01 06:41:53;;;;;;;11.73;2.55;;;20.40;64.70;;;;;;3097387;28;20427;-85
2021/10/01 06:43:24;;;;;;;13.88;2.42;;;20.40;64.70;;;;;;3096501;28;20054;-84
2021/10/01 06:44:57;;;;;;;10.57;2.30;;;20.40;64.90;;;;;;3084210;28;20051;-84
2021/10/01 06:46:35;;;;;;;10.02;1.92;;;20.40;64.90;;;;;;3101104;28;20133;-84
2021/10/01 06:48:18;;;;;;;8.23;2.30;;;20.40;64.70;;;;;;3109200;28;20060;-85
2021/10/01 06:50:07;;;;;;;8.38;2.22;;;20.40;64.80;;;;;;3108192;28;20045;-85
2021/10/01 06:52:02;;;;;;;15.30;2.67;;;20.40;65.00;;;;;;3099268;28;20046;-85
2021/10/01 07:21:35;;;;;;;14.98;2.47;;;20.30;66.40;;;;;;3098428;28;20046;-84
2021/10/01 07:35:04;;;;;;;34.28;3.35;;;20.10;68.10;;;;;;3098379;28;20046;-84
2021/10/01 07:36:43;;;;;;;22.85;3.08;;;20.20;69.20;;;;;;3096858;28;20052;-85
2021/10/01 08:18:20;;;;;;;17.52;3.10;;;20.30;67.90;;;;;;3097718;28;20082;-83
2021/10/01 08:19:11;;;;;;;17.27;2.38;;;20.10;67.30;;;;;;3098495;28;20058;-83
2021/10/01 08:20:43;;;;;;;9.88;2.20;;;20.10;67.20;;;;;;3099211;28;20055;-84
2021/10/01 08:22:15;;;;;;;8.88;2.55;;;20.10;67.40;;;;;;3099025;28;20058;-84
2021/10/01 08:23:46;;;;;;;13.38;2.58;;;20.10;67.70;;;;;;3098427;28;20483;-83
2021/10/01 08:25:18;;;;;;;9.05;2.35;;;20.00;67.70;;;;;;3098900;28;20422;-83
2021/10/01 08:26:50;;;;;;;16.45;2.47;;;20.00;67.70;;;;;;3099107;28;20050;-83
2021/10/01 08:28:22;;;;;;;9.10;2.03;;;20.00;67.70;;;;;;3098722;28;20483;-83
2021/10/01 08:29:53;;;;;;;11.02;2.17;;;20.00;67.70;;;;;;3097821;28;20165;-84
2021/10/01 08:31:27;;;;;;;10.43;2.47;;;20.00;67.70;;;;;;3097862;28;20046;-84
2021/10/01 08:33:00;;;;;;;14.07;2.83;;;20.00;67.80;;;;;;3099226;28;20496;-83
2021/10/01 08:34:33;;;;;;;9.80;2.15;;;20.00;68.00;;;;;;3098124;28;20054;-83
2021/10/01 08:36:05;;;;;;;;;;;19.90;67.80;;;;;;3098839;28;20392;-83
2021/10/01 08:37:36;;;;;;;9.48;1.88;;;20.00;67.50;;;;;;3098628;28;19925;-83
2021/10/01 08:39:08;;;;;;;5.72;2.20;;;20.10;67.50;;;;;;3098594;28;20050;-83
2021/10/01 08:40:40;;;;;;;9.68;2.33;;;20.10;67.60;;;;;;3098436;28;20101;-83
2021/10/01 08:42:12;;;;;;;10.85;1.88;;;20.00;67.70;;;;;;3098664;28;20056;-83
2021/10/01 08:43:44;;;;;;;7.38;2.20;;;20.00;67.60;;;;;;3097730;28;20062;-84
2021/10/01 08:45:17;;;;;;;9.70;1.75;;;20.00;67.70;;;;;;3098107;28;20057;-83
2021/10/01 08:46:49;;;;;;;7.40;2.00;;;20.00;67.60;;;;;;3098650;28;20226;-84
2021/10/01 08:48:22;;;;;;;7.45;2.20;;;20.00;67.50;;;;;;3098497;28;20054;-83
2021/10/01 08:49:55;;;;;;;;;;;20.00;67.50;;;;;;3097996;28;20415;-83
2021/10/01 08:51:27;;;;;;;7.75;2.05;;;20.00;67.60;;;;;;3098471;28;19925;-83
2021/10/01 08:53:00;;;;;;;8.30;2.03;;;20.00;67.50;;;;;;3098088;28;20062;-84
2021/10/01 08:54:32;;;;;;;9.30;1.85;;;20.00;67.70;;;;;;3098073;28;20108;-83
2021/10/01 08:56:04;;;;;;;8.43;1.80;;;19.90;67.60;;;;;;3098455;28;20050;-83
2021/10/01 08:57:36;;;;;;;7.18;1.92;;;20.00;67.70;;;;;;3098767;28;20065;-83
2021/10/01 08:59:08;;;;;;;7.07;1.80;;;20.00;67.60;;;;;;3097889;28;20046;-83
2021/10/01 09:00:40;;;;;;;9.10;1.90;;;20.00;67.70;;;;;;3097299;28;20432;-83
2021/10/01 09:02:12;;;;;;;11.30;2.20;;;19.90;67.60;;;;;;3098381;28;20058;-83
2021/10/01 09:03:48;;;;;;;8.20;1.95;;;19.90;67.60;;;;;;3097276;28;20755;-83
2021/10/01 09:05:19;;;;;;;5.90;1.90;;;19.90;67.60;;;;;;3098221;28;20315;-83
2021/10/01 09:06:52;;;;;;;6.80;2.25;;;19.90;67.70;;;;;;3097995;28;20061;-83
2021/10/01 09:08:24;;;;;;;7.55;1.88;;;19.90;67.70;;;;;;3098213;28;20046;-83
2021/10/01 09:09:56;;;;;;;7.18;1.98;;;19.90;67.60;;;;;;3096958;28;20054;-83
2021/10/01 09:11:29;;;;;;;6.68;1.98;;;20.00;67.70;;;;;;3097745;28;20054;-83
2021/10/01 09:13:00;;;;;;;9.32;2.05;;;19.90;67.60;;;;;;3097637;28;20053;-83
2021/10/01 09:14:32;;;;;;;10.23;1.75;;;20.00;67.60;;;;;;3097594;28;20046;-83
2021/10/01 09:16:05;;;;;;;7.35;1.92;;;19.90;67.60;;;;;;3096963;28;20057;-83
2021/10/01 09:17:37;;;;;;;6.68;1.80;;;20.00;67.70;;;;;;3097747;28;20055;-83
2021/10/01 09:19:10;;;;;;;7.93;1.80;;;20.00;67.50;;;;;;3097040;28;20052;-83
2021/10/01 09:20:42;;;;;;;5.10;1.83;;;19.90;67.50;;;;;;3097638;28;20058;-83
2021/10/01 09:22:24;;;;;;;7.90;2.00;;;20.10;67.10;;;;;;3097457;28;20046;-83
2021/10/01 09:23:59;;;;;;;7.05;1.88;;;20.10;67.10;;;;;;3097328;28;20058;-83
2021/10/01 09:25:31;;;;;;;7.43;1.83;;;20.00;67.10;;;;;;3097138;28;20042;-83